sensor_id;sensor_type;location;lat;lon;timestamp;temperature;humidity
19829;DHT22;10075;50.924;4.396;2023-01-15T00:00:00;9.70;99.90
19829;DHT22;10075;50.924;4.396;2023-01-15T00:02:27;9.60;99.90
19829;DHT22;10075;50.924;4.396;2023-01-15T00:04:54;9.50;99.90
19829;DHT22;10075;50.924;4.396;2023-01-15T00:07:21;9.50;99.90
19829;DHT22;10075;50.924;4.396;2023-01-15T00:09:49;9.40;99.90
19829;DHT22;10075;50.924;4.396;2023-01-15T00:12:16;9.30;99.90
19829;DHT22;10075;50.924;4.396;2023-01-15T00:14:43;9.20;99.90
19829;DHT22;10075;50.924;4.396;2023-01-15T00:17:11;9.30;99.90
19829;DHT22;10075;50.924;4.396;2023-01-15T00:19:38;9.50;99.90
19829;DHT22;10075;50.924;4.396;2023-01-15T00:22:05;9.60;99.90
19829;DHT22;10075;50.924;4.396;2023-01-15T00:24:32;9.50;99.90
19829;DHT22;10075;50.924;4.396;2023-01-15T00:27:17;9.60;99.90
19829;DHT22;10075;50.924;4.396;2023-01-15T00:30:01;9.40;99.90
19829;DHT22;10075;50.924;4.396;2023-01-15T00:32:29;9.30;99.90
19829;DHT22;10075;50.924;4.396;2023-01-15T00:34:57;9.40;99.90
19829;DHT22;10075;50.924;4.396;2023-01-15T00:37:24;9.10;99.90
19829;DHT22;10075;50.924;4.396;2023-01-15T00:39:52;9.20;99.90
19829;DHT22;10075;50.924;4.396;2023-01-15T00:42:19;9.30;99.90
19829;DHT22;10075;50.924;4.396;2023-01-15T00:44:46;9.50;99.90
19829;DHT22;10075;50.924;4.396;2023-01-15T00:47:13;9.50;99.90
19829;DHT22;10075;50.924;4.396;2023-01-15T00:49:41;9.60;99.90
19829;DHT22;10075;50.924;4.396;2023-01-15T00:52:09;9.60;99.90
19829;DHT22;10075;50.924;4.396;2023-01-15T00:54:36;9.40;99.90
19829;DHT22;10075;50.924;4.396;2023-01-15T00:57:03;9.30;99.90
19829;DHT22;10075;50.924;4.396;2023-01-15T00:59:30;9.00;99.90
19829;DHT22;10075;50.924;4.396;2023-01-15T01:01:57;9.00;99.90
19829;DHT22;10075;50.924;4.396;2023-01-15T01:04:24;8.90;99.90
19829;DHT22;10075;50.924;4.396;2023-01-15T01:06:53;9.00;99.90
19829;DHT22;10075;50.924;4.396;2023-01-15T01:09:20;9.00;99.90
19829;DHT22;10075;50.924;4.396;2023-01-15T01:11:48;8.90;99.90
19829;DHT22;10075;50.924;4.396;2023-01-15T01:14:15;8.90;99.90
19829;DHT22;10075;50.924;4.396;2023-01-15T01:16:42;8.80;99.90
19829;DHT22;10075;50.924;4.396;2023-01-15T01:19:12;8.80;99.90
19829;DHT22;10075;50.924;4.396;2023-01-15T01:21:40;8.80;99.90
19829;DHT22;10075;50.924;4.396;2023-01-15T01:24:09;9.10;99.90
19829;DHT22;10075;50.924;4.396;2023-01-15T01:26:37;9.10;99.90
19829;DHT22;10075;50.924;4.396;2023-01-15T01:29:04;9.40;99.90
19829;DHT22;10075;50.924;4.396;2023-01-15T01:31:31;9.40;99.90
19829;DHT22;10075;50.924;4.396;2023-01-15T01:33:58;9.30;99.90
19829;DHT22;10075;50.924;4.396;2023-01-15T01:36:27;9.20;99.90
19829;DHT22;10075;50.924;4.396;2023-01-15T01:38:54;9.20;99.90
19829;DHT22;10075;50.924;4.396;2023-01-15T01:41:23;9.00;99.90
19829;DHT22;10075;50.924;4.396;2023-01-15T01:43:53;9.10;99.90
19829;DHT22;10075;50.924;4.396;2023-01-15T01:46:20;9.20;99.90
19829;DHT22;10075;50.924;4.396;2023-01-15T01:48:48;9.10;99.90
19829;DHT22;10075;50.924;4.396;2023-01-15T01:51:16;9.10;99.90
19829;DHT22;10075;50.924;4.396;2023-01-15T01:53:45;9.10;99.90
19829;DHT22;10075;50.924;4.396;2023-01-15T01:56:12;9.10;99.90
19829;DHT22;10075;50.924;4.396;2023-01-15T01:58:45;9.10;99.90
19829;DHT22;10075;50.924;4.396;2023-01-15T02:01:12;9.10;99.90
19829;DHT22;10075;50.924;4.396;2023-01-15T02:03:39;9.40;99.90
19829;DHT22;10075;50.924;4.396;2023-01-15T02:06:08;9.60;99.90
19829;DHT22;10075;50.924;4.396;2023-01-15T02:08:36;9.60;99.90
19829;DHT22;10075;50.924;4.396;2023-01-15T02:11:05;9.60;99.90
19829;DHT22;10075;50.924;4.396;2023-01-15T02:13:36;9.60;99.90
19829;DHT22;10075;50.924;4.396;2023-01-15T02:16:10;9.50;99.90
19829;DHT22;10075;50.924;4.396;2023-01-15T02:18:43;9.60;99.90
19829;DHT22;10075;50.924;4.396;2023-01-15T02:21:21;9.50;99.90
19829;DHT22;10075;50.924;4.396;2023-01-15T02:24:08;9.50;99.90
19829;DHT22;10075;50.924;4.396;2023-01-15T02:27:02;9.40;99.90
19829;DHT22;10075;50.924;4.396;2023-01-15T02:29:40;9.40;99.90
19829;DHT22;10075;50.924;4.396;2023-01-15T02:32:12;9.30;99.90
19829;DHT22;10075;50.924;4.396;2023-01-15T02:34:44;9.30;99.90
19829;DHT22;10075;50.924;4.396;2023-01-15T02:37:17;9.30;99.90
19829;DHT22;10075;50.924;4.396;2023-01-15T02:39:47;9.30;99.90
19829;DHT22;10075;50.924;4.396;2023-01-15T02:42:17;9.30;99.90
19829;DHT22;10075;50.924;4.396;2023-01-15T02:44:47;9.10;99.90
19829;DHT22;10075;50.924;4.396;2023-01-15T02:47:19;9.10;99.90
19829;DHT22;10075;50.924;4.396;2023-01-15T02:49:49;9.00;99.90
19829;DHT22;10075;50.924;4.396;2023-01-15T02:52:21;8.90;99.90
19829;DHT22;10075;50.924;4.396;2023-01-15T02:54:53;8.80;99.90
19829;DHT22;10075;50.924;4.396;2023-01-15T02:57:25;8.80;99.90
19829;DHT22;10075;50.924;4.396;2023-01-15T02:59:56;8.80;99.90
19829;DHT22;10075;50.924;4.396;2023-01-15T03:02:28;8.60;99.90
19829;DHT22;10075;50.924;4.396;2023-01-15T03:04:59;8.60;99.90
19829;DHT22;10075;50.924;4.396;2023-01-15T03:07:33;8.50;99.90
19829;DHT22;10075;50.924;4.396;2023-01-15T03:10:02;8.60;99.90
19829;DHT22;10075;50.924;4.396;2023-01-15T03:12:36;8.70;99.90
19829;DHT22;10075;50.924;4.396;2023-01-15T03:15:26;8.50;99.90
19829;DHT22;10075;50.924;4.396;2023-01-15T03:18:19;8.60;99.90
19829;DHT22;10075;50.924;4.396;2023-01-15T03:20:51;8.60;99.90
19829;DHT22;10075;50.924;4.396;2023-01-15T03:23:22;8.60;99.90
19829;DHT22;10075;50.924;4.396;2023-01-15T03:25:50;8.40;99.90
19829;DHT22;10075;50.924;4.396;2023-01-15T03:28:21;8.40;99.90
19829;DHT22;10075;50.924;4.396;2023-01-15T03:30:49;8.50;99.90
19829;DHT22;10075;50.924;4.396;2023-01-15T03:33:17;8.50;99.90
19829;DHT22;10075;50.924;4.396;2023-01-15T03:35:47;8.40;99.90
19829;DHT22;10075;50.924;4.396;2023-01-15T03:38:16;8.50;99.90
19829;DHT22;10075;50.924;4.396;2023-01-15T03:40:49;8.30;99.90
19829;DHT22;10075;50.924;4.396;2023-01-15T03:43:25;8.30;99.90
19829;DHT22;10075;50.924;4.396;2023-01-15T03:46:14;8.30;99.90
19829;DHT22;10075;50.924;4.396;2023-01-15T03:48:58;8.30;99.90
19829;DHT22;10075;50.924;4.396;2023-01-15T03:51:32;8.30;99.90
19829;DHT22;10075;50.924;4.396;2023-01-15T03:54:06;8.20;99.90
19829;DHT22;10075;50.924;4.396;2023-01-15T03:56:40;8.20;99.90
19829;DHT22;10075;50.924;4.396;2023-01-15T03:59:17;8.30;99.90
19829;DHT22;10075;50.924;4.396;2023-01-15T04:01:47;8.20;99.90
19829;DHT22;10075;50.924;4.396;2023-01-15T04:04:16;8.20;99.90
19829;DHT22;10075;50.924;4.396;2023-01-15T04:06:44;8.30;99.90
19829;DHT22;10075;50.924;4.396;2023-01-15T04:09:12;8.20;99.90
19829;DHT22;10075;50.924;4.396;2023-01-15T04:11:39;8.10;99.90
19829;DHT22;10075;50.924;4.396;2023-01-15T04:14:07;8.00;99.90
19829;DHT22;10075;50.924;4.396;2023-01-15T04:16:36;8.10;99.90
19829;DHT22;10075;50.924;4.396;2023-01-15T04:19:03;8.10;99.90
19829;DHT22;10075;50.924;4.396;2023-01-15T04:21:30;8.10;99.90
19829;DHT22;10075;50.924;4.396;2023-01-15T04:23:57;8.00;99.90
19829;DHT22;10075;50.924;4.396;2023-01-15T04:26:24;8.00;99.90
19829;DHT22;10075;50.924;4.396;2023-01-15T04:28:51;7.90;99.90
19829;DHT22;10075;50.924;4.396;2023-01-15T04:31:18;7.90;99.90
19829;DHT22;10075;50.924;4.396;2023-01-15T04:33:47;7.90;99.90
19829;DHT22;10075;50.924;4.396;2023-01-15T04:36:14;7.90;99.90
19829;DHT22;10075;50.924;4.396;2023-01-15T04:38:41;7.90;99.90
19829;DHT22;10075;50.924;4.396;2023-01-15T04:41:09;7.90;99.90
19829;DHT22;10075;50.924;4.396;2023-01-15T04:43:53;7.90;99.90
19829;DHT22;10075;50.924;4.396;2023-01-15T04:46:33;7.90;99.90
19829;DHT22;10075;50.924;4.396;2023-01-15T04:49:02;7.90;99.90
19829;DHT22;10075;50.924;4.396;2023-01-15T04:51:29;7.90;99.90
19829;DHT22;10075;50.924;4.396;2023-01-15T04:53:56;8.00;99.90
19829;DHT22;10075;50.924;4.396;2023-01-15T04:56:24;8.00;99.90
19829;DHT22;10075;50.924;4.396;2023-01-15T04:58:50;8.10;99.90
19829;DHT22;10075;50.924;4.396;2023-01-15T05:01:17;8.10;99.90
19829;DHT22;10075;50.924;4.396;2023-01-15T05:03:45;8.10;99.90
19829;DHT22;10075;50.924;4.396;2023-01-15T05:06:13;8.00;99.90
19829;DHT22;10075;50.924;4.396;2023-01-15T05:08:40;8.00;99.90
19829;DHT22;10075;50.924;4.396;2023-01-15T05:11:07;7.90;99.90
19829;DHT22;10075;50.924;4.396;2023-01-15T05:13:35;7.90;99.90
19829;DHT22;10075;50.924;4.396;2023-01-15T05:16:09;7.90;99.90
19829;DHT22;10075;50.924;4.396;2023-01-15T05:18:36;7.90;99.90
19829;DHT22;10075;50.924;4.396;2023-01-15T05:21:04;7.80;99.90
19829;DHT22;10075;50.924;4.396;2023-01-15T05:23:32;7.70;99.90
19829;DHT22;10075;50.924;4.396;2023-01-15T05:26:02;7.70;99.90
19829;DHT22;10075;50.924;4.396;2023-01-15T05:28:29;7.70;99.90
19829;DHT22;10075;50.924;4.396;2023-01-15T05:30:56;7.70;99.90
19829;DHT22;10075;50.924;4.396;2023-01-15T05:33:23;7.80;99.90
19829;DHT22;10075;50.924;4.396;2023-01-15T05:35:50;7.70;99.90
19829;DHT22;10075;50.924;4.396;2023-01-15T05:38:17;7.80;99.90
19829;DHT22;10075;50.924;4.396;2023-01-15T05:40:46;7.80;99.90
19829;DHT22;10075;50.924;4.396;2023-01-15T05:43:13;7.80;99.90
19829;DHT22;10075;50.924;4.396;2023-01-15T05:45:40;7.80;99.90
19829;DHT22;10075;50.924;4.396;2023-01-15T05:48:06;7.70;99.90
19829;DHT22;10075;50.924;4.396;2023-01-15T05:50:33;7.70;99.90
19829;DHT22;10075;50.924;4.396;2023-01-15T05:53:00;7.60;99.90
19829;DHT22;10075;50.924;4.396;2023-01-15T05:55:28;7.60;99.90
19829;DHT22;10075;50.924;4.396;2023-01-15T05:57:56;7.50;99.90
19829;DHT22;10075;50.924;4.396;2023-01-15T06:00:24;7.40;99.90
19829;DHT22;10075;50.924;4.396;2023-01-15T06:02:51;7.10;99.90
19829;DHT22;10075;50.924;4.396;2023-01-15T06:05:18;6.80;99.90
19829;DHT22;10075;50.924;4.396;2023-01-15T06:07:47;6.30;99.90
19829;DHT22;10075;50.924;4.396;2023-01-15T06:10:17;5.90;99.90
19829;DHT22;10075;50.924;4.396;2023-01-15T06:12:44;6.00;99.90
19829;DHT22;10075;50.924;4.396;2023-01-15T06:15:13;5.90;99.90
19829;DHT22;10075;50.924;4.396;2023-01-15T06:17:40;5.80;99.90
19829;DHT22;10075;50.924;4.396;2023-01-15T06:20:08;5.80;99.90
19829;DHT22;10075;50.924;4.396;2023-01-15T06:22:36;5.80;99.90
19829;DHT22;10075;50.924;4.396;2023-01-15T06:25:05;5.80;99.90
19829;DHT22;10075;50.924;4.396;2023-01-15T06:27:32;6.00;99.90
19829;DHT22;10075;50.924;4.396;2023-01-15T06:29:59;6.20;99.90
19829;DHT22;10075;50.924;4.396;2023-01-15T06:32:27;6.40;99.90
19829;DHT22;10075;50.924;4.396;2023-01-15T06:34:54;6.40;99.90
19829;DHT22;10075;50.924;4.396;2023-01-15T06:37:21;6.30;99.90
19829;DHT22;10075;50.924;4.396;2023-01-15T06:39:48;6.00;99.90
19829;DHT22;10075;50.924;4.396;2023-01-15T06:42:15;6.00;99.90
19829;DHT22;10075;50.924;4.396;2023-01-15T06:44:59;6.10;99.90
19829;DHT22;10075;50.924;4.396;2023-01-15T06:47:41;6.20;99.90
19829;DHT22;10075;50.924;4.396;2023-01-15T06:50:10;6.40;99.90
19829;DHT22;10075;50.924;4.396;2023-01-15T06:52:37;6.40;99.90
19829;DHT22;10075;50.924;4.396;2023-01-15T06:55:05;6.40;99.90
19829;DHT22;10075;50.924;4.396;2023-01-15T06:57:32;6.40;99.90
19829;DHT22;10075;50.924;4.396;2023-01-15T06:59:59;6.60;99.90
19829;DHT22;10075;50.924;4.396;2023-01-15T07:02:26;6.60;99.90
19829;DHT22;10075;50.924;4.396;2023-01-15T07:04:55;6.60;99.90
19829;DHT22;10075;50.924;4.396;2023-01-15T07:07:22;6.70;99.90
19829;DHT22;10075;50.924;4.396;2023-01-15T07:09:49;6.70;99.90
19829;DHT22;10075;50.924;4.396;2023-01-15T07:12:17;6.70;99.90
19829;DHT22;10075;50.924;4.396;2023-01-15T07:14:44;6.60;99.90
19829;DHT22;10075;50.924;4.396;2023-01-15T07:17:12;6.50;99.90
19829;DHT22;10075;50.924;4.396;2023-01-15T07:19:39;6.60;99.90
19829;DHT22;10075;50.924;4.396;2023-01-15T07:22:09;6.50;99.90
19829;DHT22;10075;50.924;4.396;2023-01-15T07:24:36;6.50;99.90
19829;DHT22;10075;50.924;4.396;2023-01-15T07:27:03;6.40;99.90
19829;DHT22;10075;50.924;4.396;2023-01-15T07:29:30;6.60;99.90
19829;DHT22;10075;50.924;4.396;2023-01-15T07:31:57;6.60;99.90
19829;DHT22;10075;50.924;4.396;2023-01-15T07:34:24;6.50;99.90
19829;DHT22;10075;50.924;4.396;2023-01-15T07:36:51;6.50;99.90
19829;DHT22;10075;50.924;4.396;2023-01-15T07:39:20;6.50;99.90
19829;DHT22;10075;50.924;4.396;2023-01-15T07:41:47;6.50;99.90
19829;DHT22;10075;50.924;4.396;2023-01-15T07:44:31;6.40;99.90
19829;DHT22;10075;50.924;4.396;2023-01-15T07:47:17;6.40;99.90
19829;DHT22;10075;50.924;4.396;2023-01-15T07:50:04;6.50;99.90
19829;DHT22;10075;50.924;4.396;2023-01-15T07:52:31;6.50;99.90
19829;DHT22;10075;50.924;4.396;2023-01-15T07:54:59;6.40;99.90
19829;DHT22;10075;50.924;4.396;2023-01-15T07:57:26;6.40;99.90
19829;DHT22;10075;50.924;4.396;2023-01-15T07:59:54;6.40;99.90
19829;DHT22;10075;50.924;4.396;2023-01-15T08:02:21;6.40;99.90
19829;DHT22;10075;50.924;4.396;2023-01-15T08:04:48;6.50;99.90
19829;DHT22;10075;50.924;4.396;2023-01-15T08:07:15;6.50;99.90
19829;DHT22;10075;50.924;4.396;2023-01-15T08:09:42;6.50;99.90
19829;DHT22;10075;50.924;4.396;2023-01-15T08:12:11;6.50;99.90
19829;DHT22;10075;50.924;4.396;2023-01-15T08:14:55;6.50;99.90
19829;DHT22;10075;50.924;4.396;2023-01-15T08:17:43;6.40;99.90
19829;DHT22;10075;50.924;4.396;2023-01-15T08:20:12;6.40;99.90
19829;DHT22;10075;50.924;4.396;2023-01-15T08:22:40;6.40;99.90
19829;DHT22;10075;50.924;4.396;2023-01-15T08:25:08;6.40;99.90
19829;DHT22;10075;50.924;4.396;2023-01-15T08:27:37;6.40;99.90
19829;DHT22;10075;50.924;4.396;2023-01-15T08:30:07;6.50;99.90
19829;DHT22;10075;50.924;4.396;2023-01-15T08:32:34;6.60;99.90
19829;DHT22;10075;50.924;4.396;2023-01-15T08:35:01;6.60;99.90
19829;DHT22;10075;50.924;4.396;2023-01-15T08:37:28;6.50;99.90
19829;DHT22;10075;50.924;4.396;2023-01-15T08:39:55;6.50;99.90
19829;DHT22;10075;50.924;4.396;2023-01-15T08:42:22;6.50;99.90
19829;DHT22;10075;50.924;4.396;2023-01-15T08:44:50;6.60;99.90
19829;DHT22;10075;50.924;4.396;2023-01-15T08:47:18;6.60;99.90
19829;DHT22;10075;50.924;4.396;2023-01-15T08:49:45;6.60;99.90
19829;DHT22;10075;50.924;4.396;2023-01-15T08:52:13;6.60;99.90
19829;DHT22;10075;50.924;4.396;2023-01-15T08:54:40;6.60;99.90
19829;DHT22;10075;50.924;4.396;2023-01-15T08:57:08;6.70;99.90
19829;DHT22;10075;50.924;4.396;2023-01-15T08:59:36;6.60;99.90
19829;DHT22;10075;50.924;4.396;2023-01-15T09:02:05;6.70;99.90
19829;DHT22;10075;50.924;4.396;2023-01-15T09:04:32;6.70;99.90
19829;DHT22;10075;50.924;4.396;2023-01-15T09:06:59;6.80;99.90
19829;DHT22;10075;50.924;4.396;2023-01-15T09:09:26;6.80;99.90
19829;DHT22;10075;50.924;4.396;2023-01-15T09:11:53;6.90;99.90
19829;DHT22;10075;50.924;4.396;2023-01-15T09:14:20;6.90;99.90
19829;DHT22;10075;50.924;4.396;2023-01-15T09:16:47;6.90;99.90
19829;DHT22;10075;50.924;4.396;2023-01-15T09:19:15;6.90;99.90
19829;DHT22;10075;50.924;4.396;2023-01-15T09:21:42;6.90;99.90
19829;DHT22;10075;50.924;4.396;2023-01-15T09:24:09;6.90;99.90
19829;DHT22;10075;50.924;4.396;2023-01-15T09:26:38;6.90;99.90
19829;DHT22;10075;50.924;4.396;2023-01-15T09:29:06;7.00;99.90
19829;DHT22;10075;50.924;4.396;2023-01-15T09:31:33;7.00;99.90
19829;DHT22;10075;50.924;4.396;2023-01-15T09:34:00;7.00;99.90
19829;DHT22;10075;50.924;4.396;2023-01-15T09:36:31;7.10;99.90
19829;DHT22;10075;50.924;4.396;2023-01-15T09:38:59;7.00;99.90
19829;DHT22;10075;50.924;4.396;2023-01-15T09:41:32;6.90;99.90
19829;DHT22;10075;50.924;4.396;2023-01-15T09:44:30;6.90;99.90
19829;DHT22;10075;50.924;4.396;2023-01-15T09:47:04;6.80;99.90
19829;DHT22;10075;50.924;4.396;2023-01-15T09:49:51;6.80;99.90
19829;DHT22;10075;50.924;4.396;2023-01-15T09:52:38;6.80;99.90
19829;DHT22;10075;50.924;4.396;2023-01-15T09:55:12;6.70;99.90
19829;DHT22;10075;50.924;4.396;2023-01-15T09:57:42;6.70;99.90
19829;DHT22;10075;50.924;4.396;2023-01-15T10:00:16;6.80;99.90
19829;DHT22;10075;50.924;4.396;2023-01-15T10:02:46;6.90;99.90
19829;DHT22;10075;50.924;4.396;2023-01-15T10:05:17;6.80;99.90
19829;DHT22;10075;50.924;4.396;2023-01-15T10:07:53;6.80;99.90
19829;DHT22;10075;50.924;4.396;2023-01-15T10:10:26;6.80;99.90
19829;DHT22;10075;50.924;4.396;2023-01-15T10:13:02;6.60;99.90
19829;DHT22;10075;50.924;4.396;2023-01-15T10:15:35;6.60;99.90
19829;DHT22;10075;50.924;4.396;2023-01-15T10:18:04;6.60;99.90
19829;DHT22;10075;50.924;4.396;2023-01-15T10:23:35;6.70;99.90
19829;DHT22;10075;50.924;4.396;2023-01-15T10:26:13;6.60;99.90
19829;DHT22;10075;50.924;4.396;2023-01-15T10:28:57;6.70;99.90
19829;DHT22;10075;50.924;4.396;2023-01-15T10:31:48;6.60;99.90
19829;DHT22;10075;50.924;4.396;2023-01-15T10:37:11;6.60;99.90
19829;DHT22;10075;50.924;4.396;2023-01-15T10:39:47;6.70;99.90
19829;DHT22;10075;50.924;4.396;2023-01-15T10:42:29;6.70;99.90
19829;DHT22;10075;50.924;4.396;2023-01-15T10:45:02;6.70;99.90
19829;DHT22;10075;50.924;4.396;2023-01-15T10:47:33;6.90;99.90
19829;DHT22;10075;50.924;4.396;2023-01-15T10:50:04;7.00;99.90
19829;DHT22;10075;50.924;4.396;2023-01-15T10:52:40;7.00;99.90
19829;DHT22;10075;50.924;4.396;2023-01-15T10:55:18;7.10;99.90
19829;DHT22;10075;50.924;4.396;2023-01-15T10:57:50;7.00;99.90
19829;DHT22;10075;50.924;4.396;2023-01-15T11:00:18;7.10;99.90
19829;DHT22;10075;50.924;4.396;2023-01-15T11:02:58;7.20;99.90
19829;DHT22;10075;50.924;4.396;2023-01-15T11:05:26;7.20;99.90
19829;DHT22;10075;50.924;4.396;2023-01-15T11:07:55;7.20;99.90
19829;DHT22;10075;50.924;4.396;2023-01-15T11:10:24;7.20;99.90
19829;DHT22;10075;50.924;4.396;2023-01-15T11:12:53;7.20;99.90
19829;DHT22;10075;50.924;4.396;2023-01-15T11:15:37;7.20;99.90
19829;DHT22;10075;50.924;4.396;2023-01-15T11:18:25;7.40;99.90
19829;DHT22;10075;50.924;4.396;2023-01-15T11:21:11;7.50;99.90
19829;DHT22;10075;50.924;4.396;2023-01-15T11:23:39;7.70;99.90
19829;DHT22;10075;50.924;4.396;2023-01-15T11:26:08;7.90;99.90
19829;DHT22;10075;50.924;4.396;2023-01-15T11:28:37;7.70;99.90
19829;DHT22;10075;50.924;4.396;2023-01-15T11:31:06;7.80;99.90
19829;DHT22;10075;50.924;4.396;2023-01-15T11:33:34;7.80;99.90
19829;DHT22;10075;50.924;4.396;2023-01-15T11:36:04;7.70;99.90
19829;DHT22;10075;50.924;4.396;2023-01-15T11:38:42;7.80;99.90
19829;DHT22;10075;50.924;4.396;2023-01-15T11:41:20;7.90;99.90
19829;DHT22;10075;50.924;4.396;2023-01-15T11:43:55;7.90;99.90
19829;DHT22;10075;50.924;4.396;2023-01-15T11:46:40;7.90;99.90
19829;DHT22;10075;50.924;4.396;2023-01-15T11:49:25;7.90;99.90
19829;DHT22;10075;50.924;4.396;2023-01-15T11:52:19;8.10;99.90
19829;DHT22;10075;50.924;4.396;2023-01-15T11:54:50;8.10;99.90
19829;DHT22;10075;50.924;4.396;2023-01-15T11:57:29;8.00;99.90
19829;DHT22;10075;50.924;4.396;2023-01-15T11:59:57;8.00;99.90
19829;DHT22;10075;50.924;4.396;2023-01-15T12:02:31;7.90;99.90
19829;DHT22;10075;50.924;4.396;2023-01-15T12:05:03;8.00;99.90
19829;DHT22;10075;50.924;4.396;2023-01-15T12:07:30;8.00;99.90
19829;DHT22;10075;50.924;4.396;2023-01-15T12:10:17;8.10;99.90
19829;DHT22;10075;50.924;4.396;2023-01-15T12:13:12;8.10;99.90
19829;DHT22;10075;50.924;4.396;2023-01-15T12:15:46;7.90;99.90
19829;DHT22;10075;50.924;4.396;2023-01-15T12:18:47;8.00;99.90
19829;DHT22;10075;50.924;4.396;2023-01-15T12:27:27;8.00;99.90
19829;DHT22;10075;50.924;4.396;2023-01-15T12:30:01;8.10;99.90
19829;DHT22;10075;50.924;4.396;2023-01-15T12:32:34;8.10;99.90
19829;DHT22;10075;50.924;4.396;2023-01-15T12:35:07;8.00;99.90
19829;DHT22;10075;50.924;4.396;2023-01-15T12:37:44;7.90;99.90
19829;DHT22;10075;50.924;4.396;2023-01-15T12:40:19;7.90;99.90
19829;DHT22;10075;50.924;4.396;2023-01-15T12:42:51;7.90;99.90
19829;DHT22;10075;50.924;4.396;2023-01-15T12:45:39;8.00;99.90
19829;DHT22;10075;50.924;4.396;2023-01-15T12:48:13;8.10;99.90
19829;DHT22;10075;50.924;4.396;2023-01-15T12:50:45;8.10;99.90
19829;DHT22;10075;50.924;4.396;2023-01-15T12:53:15;8.10;99.90
19829;DHT22;10075;50.924;4.396;2023-01-15T12:55:47;8.30;99.90
19829;DHT22;10075;50.924;4.396;2023-01-15T12:58:31;8.30;99.90
19829;DHT22;10075;50.924;4.396;2023-01-15T13:01:05;8.30;99.90
19829;DHT22;10075;50.924;4.396;2023-01-15T13:03:48;8.30;99.90
19829;DHT22;10075;50.924;4.396;2023-01-15T13:06:17;8.40;99.90
19829;DHT22;10075;50.924;4.396;2023-01-15T13:08:52;8.50;99.90
19829;DHT22;10075;50.924;4.396;2023-01-15T13:11:21;8.50;99.90
19829;DHT22;10075;50.924;4.396;2023-01-15T13:13:48;8.50;99.90
19829;DHT22;10075;50.924;4.396;2023-01-15T13:16:39;8.60;99.90
19829;DHT22;10075;50.924;4.396;2023-01-15T13:19:25;8.50;99.90
19829;DHT22;10075;50.924;4.396;2023-01-15T13:21:56;8.60;99.90
19829;DHT22;10075;50.924;4.396;2023-01-15T13:27:43;8.70;99.90
19829;DHT22;10075;50.924;4.396;2023-01-15T13:30:26;8.70;99.90
19829;DHT22;10075;50.924;4.396;2023-01-15T13:33:10;8.60;99.90
19829;DHT22;10075;50.924;4.396;2023-01-15T13:35:44;8.70;99.90
19829;DHT22;10075;50.924;4.396;2023-01-15T13:38:17;8.50;99.90
19829;DHT22;10075;50.924;4.396;2023-01-15T13:40:48;8.50;99.90
19829;DHT22;10075;50.924;4.396;2023-01-15T13:43:33;8.50;99.90
19829;DHT22;10075;50.924;4.396;2023-01-15T13:46:05;8.20;99.90
19829;DHT22;10075;50.924;4.396;2023-01-15T13:48:40;8.00;99.90
19829;DHT22;10075;50.924;4.396;2023-01-15T13:51:25;7.70;99.90
19829;DHT22;10075;50.924;4.396;2023-01-15T13:53:53;7.50;99.90
19829;DHT22;10075;50.924;4.396;2023-01-15T13:56:26;7.60;99.90
19829;DHT22;10075;50.924;4.396;2023-01-15T13:58:55;7.60;99.90
19829;DHT22;10075;50.924;4.396;2023-01-15T14:01:24;7.80;99.90
19829;DHT22;10075;50.924;4.396;2023-01-15T14:04:01;7.70;99.90
19829;DHT22;10075;50.924;4.396;2023-01-15T14:06:36;7.70;99.90
19829;DHT22;10075;50.924;4.396;2023-01-15T14:09:04;7.60;99.90
19829;DHT22;10075;50.924;4.396;2023-01-15T14:11:36;7.70;99.90
19829;DHT22;10075;50.924;4.396;2023-01-15T14:14:20;7.60;99.90
19829;DHT22;10075;50.924;4.396;2023-01-15T14:17:01;7.70;99.90
19829;DHT22;10075;50.924;4.396;2023-01-15T14:19:48;7.70;99.90
19829;DHT22;10075;50.924;4.396;2023-01-15T14:22:36;7.70;99.90
19829;DHT22;10075;50.924;4.396;2023-01-15T14:25:19;7.60;99.90
19829;DHT22;10075;50.924;4.396;2023-01-15T14:28:03;7.60;99.90
19829;DHT22;10075;50.924;4.396;2023-01-15T14:30:46;7.60;99.90
19829;DHT22;10075;50.924;4.396;2023-01-15T14:33:23;7.50;99.90
19829;DHT22;10075;50.924;4.396;2023-01-15T14:35:55;7.50;99.90
19829;DHT22;10075;50.924;4.396;2023-01-15T14:38:25;7.50;99.90
19829;DHT22;10075;50.924;4.396;2023-01-15T14:40:56;7.50;99.90
19829;DHT22;10075;50.924;4.396;2023-01-15T14:43:26;7.50;99.90
19829;DHT22;10075;50.924;4.396;2023-01-15T14:45:54;7.50;99.90
19829;DHT22;10075;50.924;4.396;2023-01-15T14:48:35;7.40;99.90
19829;DHT22;10075;50.924;4.396;2023-01-15T14:51:12;7.50;99.90
19829;DHT22;10075;50.924;4.396;2023-01-15T14:53:42;7.60;99.90
19829;DHT22;10075;50.924;4.396;2023-01-15T14:56:17;7.60;99.90
19829;DHT22;10075;50.924;4.396;2023-01-15T14:58:49;7.60;99.90
19829;DHT22;10075;50.924;4.396;2023-01-15T15:01:35;7.50;99.90
19829;DHT22;10075;50.924;4.396;2023-01-15T15:04:11;7.50;99.90
19829;DHT22;10075;50.924;4.396;2023-01-15T15:06:45;7.40;99.90
19829;DHT22;10075;50.924;4.396;2023-01-15T15:09:13;7.30;99.90
19829;DHT22;10075;50.924;4.396;2023-01-15T15:11:46;7.20;99.90
19829;DHT22;10075;50.924;4.396;2023-01-15T15:14:34;7.30;99.90
19829;DHT22;10075;50.924;4.396;2023-01-15T15:17:10;7.40;99.90
19829;DHT22;10075;50.924;4.396;2023-01-15T15:19:44;7.40;99.90
19829;DHT22;10075;50.924;4.396;2023-01-15T15:22:18;7.40;99.90
19829;DHT22;10075;50.924;4.396;2023-01-15T15:24:48;7.40;99.90
19829;DHT22;10075;50.924;4.396;2023-01-15T15:27:17;7.40;99.90
19829;DHT22;10075;50.924;4.396;2023-01-15T15:29:44;7.40;99.90
19829;DHT22;10075;50.924;4.396;2023-01-15T15:32:14;7.50;99.90
19829;DHT22;10075;50.924;4.396;2023-01-15T15:34:44;7.50;99.90
19829;DHT22;10075;50.924;4.396;2023-01-15T15:37:18;7.50;99.90
19829;DHT22;10075;50.924;4.396;2023-01-15T15:39:51;7.50;99.90
19829;DHT22;10075;50.924;4.396;2023-01-15T15:42:21;7.40;99.90
19829;DHT22;10075;50.924;4.396;2023-01-15T15:45:15;7.40;99.90
19829;DHT22;10075;50.924;4.396;2023-01-15T15:48:11;7.40;99.90
19829;DHT22;10075;50.924;4.396;2023-01-15T15:50:56;7.30;99.90
19829;DHT22;10075;50.924;4.396;2023-01-15T15:53:24;7.30;99.90
19829;DHT22;10075;50.924;4.396;2023-01-15T15:55:53;7.20;99.90
19829;DHT22;10075;50.924;4.396;2023-01-15T15:58:25;7.10;99.90
19829;DHT22;10075;50.924;4.396;2023-01-15T16:00:53;7.00;99.90
19829;DHT22;10075;50.924;4.396;2023-01-15T16:03:25;6.90;99.90
19829;DHT22;10075;50.924;4.396;2023-01-15T16:05:57;6.80;99.90
19829;DHT22;10075;50.924;4.396;2023-01-15T16:08:26;6.80;99.90
19829;DHT22;10075;50.924;4.396;2023-01-15T16:10:56;6.80;99.90
19829;DHT22;10075;50.924;4.396;2023-01-15T16:13:26;6.70;99.90
19829;DHT22;10075;50.924;4.396;2023-01-15T16:15:57;6.60;99.90
19829;DHT22;10075;50.924;4.396;2023-01-15T16:18:26;6.50;99.90
19829;DHT22;10075;50.924;4.396;2023-01-15T16:20:55;6.80;99.90
19829;DHT22;10075;50.924;4.396;2023-01-15T16:23:26;6.70;99.90
19829;DHT22;10075;50.924;4.396;2023-01-15T16:25:59;6.40;99.90
19829;DHT22;10075;50.924;4.396;2023-01-15T16:28:31;6.30;99.90